createdAt,value
2023-02-11T00:00:24.232Z,0.57
2023-02-11T00:03:26.402Z,0.62
2023-02-11T00:06:29.821Z,0.68
2023-02-11T00:09:31.983Z,0.50
2023-02-11T00:12:35.169Z,0.35
2023-02-11T00:15:37.188Z,0.71
2023-02-11T00:18:38.781Z,0.64
2023-02-11T00:21:40.430Z,0.52
2023-02-11T00:24:41.848Z,0.42
2023-02-11T00:27:43.291Z,0.24
2023-02-11T00:30:44.929Z,0.25
2023-02-11T00:33:46.802Z,0.21
2023-02-11T00:36:49.433Z,0.17
2023-02-11T00:39:50.928Z,0.05
2023-02-11T00:42:52.422Z,0.00
2023-02-11T00:45:53.968Z,0.09
2023-02-11T00:48:57.700Z,0.04
2023-02-11T00:51:59.209Z,-0.09
2023-02-11T00:55:00.689Z,-0.41
2023-02-11T00:58:02.376Z,-0.46
2023-02-11T01:01:04.561Z,-0.59
2023-02-11T01:04:06.064Z,-0.42
2023-02-11T01:07:07.608Z,-0.34
2023-02-11T01:10:09.393Z,-0.59
2023-02-11T01:13:10.952Z,-0.40
2023-02-11T01:16:13.396Z,-0.50
2023-02-11T01:19:15.018Z,-0.49
2023-02-11T01:22:19.303Z,-0.34
2023-02-11T01:25:22.043Z,-0.31
2023-02-11T01:28:26.329Z,-0.37
2023-02-11T01:31:28.071Z,-0.52
2023-02-11T01:34:29.678Z,-0.57
2023-02-11T01:37:33.622Z,-0.42
2023-02-11T01:40:35.062Z,-0.36
2023-02-11T01:43:42.758Z,-0.45
2023-02-11T01:46:44.446Z,-0.66
2023-02-11T01:49:50.818Z,-0.51
2023-02-11T01:52:52.274Z,-0.46
2023-02-11T01:56:13.993Z,-0.65
2023-02-11T01:59:22.442Z,-0.75
2023-02-11T02:02:32.946Z,-0.67
2023-02-11T02:05:45.287Z,-0.57
2023-02-11T02:08:57.424Z,-0.79
2023-02-11T02:11:59.017Z,-0.96
2023-02-11T02:15:22.390Z,-0.79
2023-02-11T02:18:36.079Z,-0.55
2023-02-11T02:21:52.772Z,-0.62
2023-02-11T02:25:00.999Z,-0.75
2023-02-11T02:28:05.547Z,-0.72
2023-02-11T02:31:25.644Z,-0.89
2023-02-11T02:34:36.448Z,-0.61
2023-02-11T02:37:46.453Z,-0.56
2023-02-11T02:41:00.134Z,-0.58
2023-02-11T02:44:02.376Z,-0.61
2023-02-11T02:47:04.001Z,-0.70
2023-02-11T02:50:08.341Z,-0.73
2023-02-11T02:53:31.184Z,-0.63
2023-02-11T02:56:50.348Z,-0.64
2023-02-11T02:59:58.009Z,-0.68
2023-02-11T03:03:26.192Z,-0.65
2023-02-11T03:06:39.740Z,-0.84
2023-02-11T03:10:23.429Z,-0.74
2023-02-11T03:13:31.982Z,-0.67
2023-02-11T03:16:39.077Z,-0.64
2023-02-11T03:19:46.338Z,-0.66
2023-02-11T03:23:16.918Z,-0.62
2023-02-11T03:26:22.776Z,-0.67
2023-02-11T03:29:39.373Z,-0.48
2023-02-11T03:32:49.259Z,-0.52
2023-02-11T03:35:55.965Z,-0.60
2023-02-11T03:39:00.367Z,-0.71
2023-02-11T03:42:03.999Z,-0.84
2023-02-11T03:45:12.914Z,-0.90
2023-02-11T03:48:22.413Z,-0.85
2023-02-11T03:51:25.376Z,-0.73
2023-02-11T03:54:31.264Z,-0.71
2023-02-11T03:57:34.604Z,-0.95
2023-02-11T04:00:39.775Z,-1.04
2023-02-11T04:03:41.319Z,-0.90
2023-02-11T04:06:43.440Z,-0.89
2023-02-11T04:09:44.884Z,-0.77
2023-02-11T04:12:46.384Z,-0.88
2023-02-11T04:15:48.954Z,-1.48
2023-02-11T04:18:50.673Z,-1.44
2023-02-11T04:21:52.129Z,-1.08
2023-02-11T04:24:53.591Z,-1.11
2023-02-11T04:27:55.093Z,-0.91
2023-02-11T04:30:57.210Z,-0.88
2023-02-11T04:33:58.761Z,-0.79
2023-02-11T04:37:00.221Z,-0.87
2023-02-11T04:40:01.910Z,-0.84
2023-02-11T04:43:03.414Z,-0.71
2023-02-11T04:46:05.052Z,-0.71
2023-02-11T04:49:06.532Z,-0.68
2023-02-11T04:52:08.669Z,-0.70
2023-02-11T04:55:10.211Z,-0.65
2023-02-11T04:58:11.670Z,-0.65
2023-02-11T05:01:15.271Z,-0.56
2023-02-11T05:04:17.372Z,-0.59
2023-02-11T05:07:18.888Z,-0.70
2023-02-11T05:10:20.382Z,-0.87
2023-02-11T05:13:22.113Z,-0.68
2023-02-11T05:16:23.765Z,-0.78
2023-02-11T05:19:25.244Z,-0.74
2023-02-11T05:22:26.716Z,-0.63
2023-02-11T05:25:28.203Z,-0.59
2023-02-11T05:28:30.051Z,-0.56
2023-02-11T05:31:32.705Z,-0.52
2023-02-11T05:34:34.330Z,-0.37
2023-02-11T05:37:35.856Z,-0.41
2023-02-11T05:40:37.415Z,-0.38
2023-02-11T05:43:38.927Z,-0.42
2023-02-11T05:46:40.462Z,-0.27
2023-02-11T05:49:41.966Z,-0.43
2023-02-11T05:52:43.462Z,-0.42
2023-02-11T05:55:45.073Z,-0.39
2023-02-11T05:58:46.655Z,-0.36
2023-02-11T06:01:48.246Z,-0.20
2023-02-11T06:04:49.689Z,-0.40
2023-02-11T06:07:51.329Z,-0.13
2023-02-11T06:10:52.767Z,-0.14
2023-02-11T06:13:54.238Z,0.08
2023-02-11T06:16:55.696Z,0.16
2023-02-11T06:19:57.473Z,-0.06
2023-02-11T06:22:58.944Z,-0.01
2023-02-11T06:26:05.791Z,0.12
2023-02-11T06:29:07.555Z,0.03
2023-02-11T06:32:23.323Z,0.09
2023-02-11T06:35:31.088Z,0.10
2023-02-11T06:38:32.544Z,0.00
2023-02-11T06:41:34.523Z,0.20
2023-02-11T06:44:36.065Z,0.20
2023-02-11T06:47:38.237Z,0.40
2023-02-11T06:50:39.739Z,0.50
2023-02-11T06:53:43.971Z,0.48
2023-02-11T06:56:45.429Z,0.39
2023-02-11T06:59:47.203Z,0.42
2023-02-11T07:02:48.736Z,0.47
2023-02-11T07:05:50.481Z,0.54
2023-02-11T07:08:52.089Z,0.57
2023-02-11T07:11:53.572Z,0.42
2023-02-11T07:14:56.656Z,0.51
2023-02-11T07:17:58.334Z,0.35
2023-02-11T07:21:00.048Z,0.29
2023-02-11T07:24:01.942Z,0.19
2023-02-11T07:27:03.477Z,0.15
2023-02-11T07:30:07.401Z,0.12
2023-02-11T07:33:09.039Z,0.15
2023-02-11T07:36:11.341Z,-0.12
2023-02-11T07:39:12.830Z,0.24
2023-02-11T07:42:14.365Z,0.30
2023-02-11T07:45:16.460Z,0.34
2023-02-11T07:48:17.897Z,0.49
2023-02-11T07:51:22.649Z,0.50
2023-02-11T07:54:24.133Z,0.39
2023-02-11T07:57:26.054Z,0.27
2023-02-11T08:00:27.731Z,0.34
2023-02-11T08:03:29.636Z,0.42
2023-02-11T08:06:34.850Z,0.38
2023-02-11T08:09:36.482Z,0.39
2023-02-11T08:12:37.914Z,0.27
2023-02-11T08:15:39.348Z,0.43
2023-02-11T08:18:40.912Z,0.52
2023-02-11T08:21:43.212Z,0.59
2023-02-11T08:24:44.750Z,0.49
2023-02-11T08:27:46.278Z,0.53
2023-02-11T08:30:47.780Z,0.41
2023-02-11T08:33:49.985Z,0.52
2023-02-11T08:36:51.437Z,0.42
2023-02-11T08:39:52.905Z,0.43
2023-02-11T08:42:54.412Z,0.41
2023-02-11T08:46:26.705Z,0.52
2023-02-11T08:49:31.484Z,0.66
2023-02-11T08:52:32.858Z,0.98
2023-02-11T08:55:34.513Z,1.37
2023-02-11T08:58:36.197Z,1.60
2023-02-11T09:01:37.754Z,1.62
2023-02-11T09:04:40.048Z,1.88
2023-02-11T09:07:41.476Z,2.13
2023-02-11T09:10:43.275Z,2.13
2023-02-11T09:13:46.068Z,2.42
2023-02-11T09:16:48.565Z,2.83
2023-02-11T09:19:50.216Z,2.94
2023-02-11T09:22:51.950Z,3.33
2023-02-11T09:25:53.553Z,3.61
2023-02-11T09:28:56.497Z,3.56
2023-02-11T09:31:58.280Z,3.80
2023-02-11T09:34:59.839Z,3.91
2023-02-11T09:38:01.643Z,3.64
2023-02-11T09:41:07.747Z,3.84
2023-02-11T09:44:18.608Z,3.58
2023-02-11T09:47:28.184Z,4.04
2023-02-11T09:50:36.127Z,3.97
2023-02-11T09:53:42.286Z,4.12
2023-02-11T09:56:43.852Z,4.46
2023-02-11T09:59:45.429Z,4.58
2023-02-11T10:03:08.734Z,4.68
2023-02-11T10:06:16.461Z,4.68
2023-02-11T10:09:30.540Z,4.77
2023-02-11T10:12:56.190Z,5.05
2023-02-11T10:16:03.722Z,4.89
2023-02-11T10:19:39.011Z,4.76
2023-02-11T10:23:01.549Z,5.44
2023-02-11T10:26:03.546Z,5.28
2023-02-11T10:29:18.412Z,5.37
2023-02-11T10:32:35.159Z,5.61
2023-02-11T10:35:37.873Z,5.93
2023-02-11T10:38:39.940Z,6.02
2023-02-11T10:41:46.426Z,6.20
2023-02-11T10:45:04.501Z,5.84
2023-02-11T10:48:40.209Z,5.57
2023-02-11T10:51:41.751Z,5.73
2023-02-11T10:55:01.995Z,6.15
2023-02-11T10:58:04.828Z,6.57
2023-02-11T11:01:23.247Z,6.39
2023-02-11T11:04:42.493Z,5.76
2023-02-11T11:07:56.503Z,5.23
2023-02-11T11:11:10.031Z,5.18
2023-02-11T11:14:19.331Z,5.68
2023-02-11T11:17:21.105Z,5.89
2023-02-11T11:20:28.354Z,5.60
2023-02-11T11:23:31.186Z,5.55
2023-02-11T11:26:43.119Z,6.07
2023-02-11T11:29:54.788Z,6.45
2023-02-11T11:32:56.545Z,6.48
2023-02-11T11:36:03.344Z,6.69
2023-02-11T11:39:20.474Z,6.57
2023-02-11T11:42:24.680Z,6.57
2023-02-11T11:45:27.259Z,6.88
2023-02-11T11:48:35.037Z,6.72
2023-02-11T11:51:41.267Z,7.39
2023-02-11T11:54:47.780Z,7.19
2023-02-11T11:57:51.021Z,7.58
2023-02-11T12:00:58.457Z,7.90
2023-02-11T12:04:12.248Z,7.83
2023-02-11T12:07:35.308Z,7.79
2023-02-11T12:10:44.384Z,7.75
2023-02-11T12:14:08.338Z,7.73
2023-02-11T12:17:43.886Z,7.94
2023-02-11T12:21:04.068Z,8.44
2023-02-11T12:24:32.785Z,8.35
2023-02-11T12:27:40.218Z,8.08
2023-02-11T12:30:51.312Z,8.46
2023-02-11T12:34:07.464Z,8.21
2023-02-11T12:37:27.116Z,7.92
2023-02-11T12:40:59.833Z,7.78
2023-02-11T12:44:01.343Z,7.62
2023-02-11T12:47:30.434Z,7.74
2023-02-11T12:50:57.447Z,7.18
2023-02-11T12:54:06.839Z,7.33
2023-02-11T12:57:31.762Z,7.61
2023-02-11T13:00:45.985Z,7.36
2023-02-11T13:03:54.726Z,7.26
2023-02-11T13:07:02.219Z,7.19
2023-02-11T13:10:36.557Z,7.23
2023-02-11T13:13:47.096Z,7.03
2023-02-11T13:16:50.909Z,6.83
2023-02-11T13:19:58.714Z,7.07
2023-02-11T13:23:23.653Z,7.48
2023-02-11T13:26:33.651Z,7.47
2023-02-11T13:30:11.274Z,7.31
2023-02-11T13:33:18.227Z,7.35
2023-02-11T13:36:25.556Z,7.26
2023-02-11T13:39:27.134Z,7.61
2023-02-11T13:42:31.171Z,7.51
2023-02-11T13:45:47.942Z,7.64
2023-02-11T13:48:53.018Z,7.45
2023-02-11T13:51:55.523Z,7.79
2023-02-11T13:55:03.330Z,7.58
2023-02-11T13:58:07.487Z,7.70
2023-02-11T14:01:09.013Z,7.81
2023-02-11T14:04:44.159Z,7.79
2023-02-11T14:08:31.506Z,7.76
2023-02-11T14:11:33.203Z,7.95
2023-02-11T14:15:08.057Z,7.95
2023-02-11T14:18:44.348Z,7.85
2023-02-11T14:21:46.737Z,8.12
2023-02-11T14:24:51.092Z,7.99
2023-02-11T14:27:56.709Z,7.92
2023-02-11T14:31:13.034Z,7.84
2023-02-11T14:34:35.397Z,8.11
2023-02-11T14:37:59.194Z,7.93
2023-02-11T14:41:10.484Z,8.00
2023-02-11T14:44:21.562Z,7.75
2023-02-11T14:47:37.028Z,7.83
2023-02-11T14:50:46.198Z,7.81
2023-02-11T14:53:51.100Z,7.99
2023-02-11T14:57:11.885Z,7.78
2023-02-11T15:00:21.537Z,7.88
2023-02-11T15:03:41.156Z,7.85
2023-02-11T15:06:47.136Z,7.95
2023-02-11T15:09:52.421Z,7.93
2023-02-11T15:12:54.792Z,8.07
2023-02-11T15:15:58.656Z,7.89
2023-02-11T15:19:05.526Z,8.06
2023-02-11T15:22:22.205Z,8.08
2023-02-11T15:25:24.131Z,7.93
2023-02-11T15:28:28.966Z,7.97
2023-02-11T15:31:33.822Z,7.90
2023-02-11T15:34:37.161Z,7.74
2023-02-11T15:37:39.872Z,7.78
2023-02-11T15:40:52.664Z,7.79
2023-02-11T15:43:54.501Z,7.74
2023-02-11T15:46:56.287Z,7.86
2023-02-11T15:49:58.052Z,7.83
2023-02-11T15:53:02.638Z,7.71
2023-02-11T15:56:17.502Z,7.51
2023-02-11T15:59:30.524Z,7.71
2023-02-11T16:02:35.013Z,7.69
2023-02-11T16:05:37.984Z,7.51
2023-02-11T16:08:41.537Z,7.45
2023-02-11T16:11:45.749Z,7.28
2023-02-11T16:14:47.194Z,7.34
2023-02-11T16:17:48.797Z,7.30
2023-02-11T16:20:50.897Z,7.23
2023-02-11T16:23:57.189Z,7.13
2023-02-11T16:27:01.295Z,7.06
2023-02-11T16:30:02.781Z,6.98
2023-02-11T16:33:05.488Z,6.76
2023-02-11T16:36:19.488Z,6.52
2023-02-11T16:39:22.453Z,6.45
2023-02-11T16:42:24.926Z,6.28
2023-02-11T16:45:26.845Z,6.18
2023-02-11T16:48:28.347Z,6.10
2023-02-11T16:51:29.963Z,6.00
2023-02-11T16:54:31.612Z,5.89
2023-02-11T16:57:33.172Z,5.77
2023-02-11T17:00:36.225Z,5.69
2023-02-11T17:03:40.452Z,5.52
2023-02-11T17:06:42.009Z,5.21
2023-02-11T17:09:43.597Z,5.10
2023-02-11T17:12:45.359Z,5.15
2023-02-11T17:15:46.909Z,5.12
2023-02-11T17:18:49.133Z,4.89
2023-02-11T17:21:52.761Z,5.01
2023-02-11T17:24:59.709Z,4.87
2023-02-11T17:28:01.262Z,4.70
2023-02-11T17:31:08.292Z,4.41
2023-02-11T17:34:09.882Z,4.56
2023-02-11T17:37:11.619Z,4.66
2023-02-11T17:40:17.113Z,4.57
2023-02-11T17:43:18.586Z,4.48
2023-02-11T17:46:20.206Z,4.47
2023-02-11T17:49:21.769Z,4.40
2023-02-11T17:52:28.053Z,4.37
2023-02-11T17:55:33.239Z,4.47
2023-02-11T17:58:35.152Z,4.45
2023-02-11T18:01:38.220Z,4.19
2023-02-11T18:04:43.258Z,4.01
2023-02-11T18:07:52.625Z,4.06
2023-02-11T18:10:54.083Z,4.22
2023-02-11T18:13:56.304Z,4.20
2023-02-11T18:16:57.968Z,4.03
2023-02-11T18:19:59.470Z,3.69
2023-02-11T18:23:01.087Z,3.68
2023-02-11T18:26:03.177Z,3.67
2023-02-11T18:29:06.166Z,3.76
2023-02-11T18:32:07.894Z,3.80
2023-02-11T18:35:14.799Z,3.78
2023-02-11T18:38:16.497Z,3.57
2023-02-11T18:41:17.957Z,3.39
2023-02-11T18:44:22.267Z,3.27
2023-02-11T18:47:23.844Z,3.40
2023-02-11T18:50:25.348Z,3.31
2023-02-11T18:53:26.908Z,3.28
2023-02-11T18:56:28.871Z,3.14
2023-02-11T18:59:30.437Z,3.32
2023-02-11T19:02:31.964Z,3.14
2023-02-11T19:05:43.609Z,3.10
2023-02-11T19:08:45.702Z,3.16
2023-02-11T19:11:47.422Z,3.21
2023-02-11T19:14:48.960Z,3.22
2023-02-11T19:17:50.409Z,3.22
2023-02-11T19:20:51.928Z,3.16
2023-02-11T19:23:53.371Z,3.08
2023-02-11T19:27:00.435Z,3.06
2023-02-11T19:30:02.013Z,2.73
2023-02-11T19:33:03.547Z,2.58
2023-02-11T19:36:06.718Z,2.80
2023-02-11T19:39:08.589Z,2.72
2023-02-11T19:42:10.666Z,2.69
2023-02-11T19:45:12.166Z,2.52
2023-02-11T19:48:13.649Z,2.60
2023-02-11T19:51:15.816Z,2.76
2023-02-11T19:54:17.407Z,2.68
2023-02-11T19:57:18.894Z,2.64
2023-02-11T20:00:20.870Z,2.68
2023-02-11T20:03:22.358Z,2.69
2023-02-11T20:06:29.712Z,2.62
2023-02-11T20:09:31.766Z,2.44
2023-02-11T20:12:33.204Z,2.39
2023-02-11T20:15:34.657Z,2.47
2023-02-11T20:18:36.680Z,2.63
2023-02-11T20:21:38.487Z,2.61
2023-02-11T20:24:40.042Z,2.20
2023-02-11T20:27:41.735Z,2.00
2023-02-11T20:30:43.289Z,2.41
2023-02-11T20:33:45.431Z,2.25
2023-02-11T20:36:53.074Z,2.19
2023-02-11T20:39:54.646Z,2.40
2023-02-11T20:42:56.666Z,2.33
2023-02-11T20:46:05.397Z,2.03
2023-02-11T20:49:08.648Z,2.28
2023-02-11T20:52:10.176Z,2.45
2023-02-11T20:55:11.953Z,2.47
2023-02-11T20:58:13.394Z,2.46
2023-02-11T21:01:21.596Z,2.34
2023-02-11T21:04:29.619Z,2.28
2023-02-11T21:07:31.373Z,2.29
2023-02-11T21:10:32.898Z,2.15
2023-02-11T21:13:36.101Z,2.06
2023-02-11T21:16:38.214Z,2.11
2023-02-11T21:19:41.346Z,2.18
2023-02-11T21:22:43.220Z,2.18
2023-02-11T21:25:44.748Z,2.34
2023-02-11T21:28:46.266Z,2.37
2023-02-11T21:31:48.946Z,2.44
2023-02-11T21:34:50.503Z,2.45
2023-02-11T21:37:52.227Z,2.47
2023-02-11T21:40:53.752Z,2.34
2023-02-11T21:43:55.237Z,2.46
2023-02-11T21:46:56.774Z,2.33
2023-02-11T21:49:58.423Z,2.41
2023-02-11T21:52:59.911Z,2.29
2023-02-11T21:56:09.373Z,2.58
2023-02-11T21:59:13.895Z,2.61
2023-02-11T22:02:15.346Z,2.36
2023-02-11T22:05:16.895Z,2.16
2023-02-11T22:08:20.252Z,2.28
2023-02-11T22:11:22.818Z,2.53
2023-02-11T22:14:24.308Z,2.71
2023-02-11T22:17:25.961Z,2.71
2023-02-11T22:20:27.468Z,2.73
2023-02-11T22:23:29.937Z,2.57
2023-02-11T22:26:31.287Z,2.44
2023-02-11T22:29:33.017Z,2.44
2023-02-11T22:32:34.555Z,2.60
2023-02-11T22:35:36.058Z,2.61
2023-02-11T22:38:37.578Z,2.76
2023-02-11T22:41:40.487Z,2.77
2023-02-11T22:44:41.919Z,2.75
2023-02-11T22:47:43.375Z,2.77
2023-02-11T22:50:44.861Z,2.81
2023-02-11T22:53:55.326Z,2.82
2023-02-11T22:56:56.847Z,2.92
2023-02-11T22:59:58.370Z,2.85
2023-02-11T23:02:59.905Z,2.98
2023-02-11T23:06:01.545Z,3.05
2023-02-11T23:09:09.019Z,3.06
2023-02-11T23:12:10.562Z,2.98
2023-02-11T23:15:12.048Z,3.03
2023-02-11T23:18:14.080Z,3.05
2023-02-11T23:21:22.510Z,3.09
2023-02-11T23:24:23.970Z,3.14
2023-02-11T23:27:25.479Z,3.20
2023-02-11T23:30:28.261Z,3.24
2023-02-11T23:33:29.909Z,3.24
2023-02-11T23:36:32.339Z,3.28
2023-02-11T23:39:33.896Z,3.34
2023-02-11T23:42:38.642Z,3.36
2023-02-11T23:45:40.210Z,3.29
2023-02-11T23:48:41.671Z,3.23
2023-02-11T23:51:43.384Z,3.23
2023-02-11T23:54:45.541Z,3.17
2023-02-11T23:57:47.010Z,3.14
